sensor_id;sensor_type;location;lat;lon;timestamp;temperature;humidity
30889;DHT22;51092;50.874;7.024;2024-02-26T00:00:13;8.40;73.00
30889;DHT22;51092;50.874;7.024;2024-02-26T00:01:15;8.40;73.40
30889;DHT22;51092;50.874;7.024;2024-02-26T00:02:18;8.40;73.60
30889;DHT22;51092;50.874;7.024;2024-02-26T00:03:19;8.50;73.30
30889;DHT22;51092;50.874;7.024;2024-02-26T00:04:22;8.50;73.30
30889;DHT22;51092;50.874;7.024;2024-02-26T00:05:23;8.50;73.20
30889;DHT22;51092;50.874;7.024;2024-02-26T00:06:26;8.60;73.30
30889;DHT22;51092;50.874;7.024;2024-02-26T00:07:27;8.50;73.10
30889;DHT22;51092;50.874;7.024;2024-02-26T00:08:30;8.60;73.40
30889;DHT22;51092;50.874;7.024;2024-02-26T00:09:31;8.70;73.50
30889;DHT22;51092;50.874;7.024;2024-02-26T00:10:36;8.80;72.90
30889;DHT22;51092;50.874;7.024;2024-02-26T00:11:37;8.80;72.60
30889;DHT22;51092;50.874;7.024;2024-02-26T00:12:39;8.80;72.70
30889;DHT22;51092;50.874;7.024;2024-02-26T00:13:42;8.80;72.50
30889;DHT22;51092;50.874;7.024;2024-02-26T00:14:44;8.80;72.60
30889;DHT22;51092;50.874;7.024;2024-02-26T00:15:47;8.60;73.40
30889;DHT22;51092;50.874;7.024;2024-02-26T00:16:49;8.50;74.40
30889;DHT22;51092;50.874;7.024;2024-02-26T00:17:51;8.30;75.70
30889;DHT22;51092;50.874;7.024;2024-02-26T00:18:53;8.30;76.20
30889;DHT22;51092;50.874;7.024;2024-02-26T00:19:55;8.20;76.90
30889;DHT22;51092;50.874;7.024;2024-02-26T00:20:56;8.20;77.20
30889;DHT22;51092;50.874;7.024;2024-02-26T00:21:59;8.10;77.40
30889;DHT22;51092;50.874;7.024;2024-02-26T00:23:00;8.00;77.70
30889;DHT22;51092;50.874;7.024;2024-02-26T00:24:03;8.00;78.20
30889;DHT22;51092;50.874;7.024;2024-02-26T00:25:05;8.00;78.20
30889;DHT22;51092;50.874;7.024;2024-02-26T00:26:08;8.00;78.50
30889;DHT22;51092;50.874;7.024;2024-02-26T00:27:10;8.00;77.60
30889;DHT22;51092;50.874;7.024;2024-02-26T00:28:13;8.00;77.20
30889;DHT22;51092;50.874;7.024;2024-02-26T00:29:16;8.10;76.80
30889;DHT22;51092;50.874;7.024;2024-02-26T00:30:18;8.10;76.50
30889;DHT22;51092;50.874;7.024;2024-02-26T00:31:20;8.00;76.70
30889;DHT22;51092;50.874;7.024;2024-02-26T00:32:22;8.10;76.50
30889;DHT22;51092;50.874;7.024;2024-02-26T00:33:24;8.10;76.40
30889;DHT22;51092;50.874;7.024;2024-02-26T00:34:26;7.90;76.70
30889;DHT22;51092;50.874;7.024;2024-02-26T00:35:28;8.10;75.90
30889;DHT22;51092;50.874;7.024;2024-02-26T00:36:30;8.00;76.70
30889;DHT22;51092;50.874;7.024;2024-02-26T00:37:33;8.00;77.10
30889;DHT22;51092;50.874;7.024;2024-02-26T00:38:35;8.00;77.10
30889;DHT22;51092;50.874;7.024;2024-02-26T00:39:36;8.00;77.10
30889;DHT22;51092;50.874;7.024;2024-02-26T00:40:41;8.10;77.00
30889;DHT22;51092;50.874;7.024;2024-02-26T00:41:42;8.20;76.30
30889;DHT22;51092;50.874;7.024;2024-02-26T00:42:44;8.10;77.00
30889;DHT22;51092;50.874;7.024;2024-02-26T00:43:47;8.10;76.70
30889;DHT22;51092;50.874;7.024;2024-02-26T00:44:51;8.00;77.30
30889;DHT22;51092;50.874;7.024;2024-02-26T00:45:52;8.00;77.30
30889;DHT22;51092;50.874;7.024;2024-02-26T00:46:55;8.20;76.60
30889;DHT22;51092;50.874;7.024;2024-02-26T00:47:56;8.10;77.00
30889;DHT22;51092;50.874;7.024;2024-02-26T00:48:59;8.20;76.20
30889;DHT22;51092;50.874;7.024;2024-02-26T00:50:01;8.20;76.40
30889;DHT22;51092;50.874;7.024;2024-02-26T00:52:06;8.10;76.70
30889;DHT22;51092;50.874;7.024;2024-02-26T00:53:09;8.00;77.20
30889;DHT22;51092;50.874;7.024;2024-02-26T00:54:10;8.00;77.60
30889;DHT22;51092;50.874;7.024;2024-02-26T00:55:13;8.00;77.60
30889;DHT22;51092;50.874;7.024;2024-02-26T00:56:14;8.10;77.60
30889;DHT22;51092;50.874;7.024;2024-02-26T00:57:16;8.20;77.10
30889;DHT22;51092;50.874;7.024;2024-02-26T00:58:18;8.20;77.40
30889;DHT22;51092;50.874;7.024;2024-02-26T00:59:21;8.20;77.50
30889;DHT22;51092;50.874;7.024;2024-02-26T01:00:25;8.20;76.50
30889;DHT22;51092;50.874;7.024;2024-02-26T01:01:27;8.00;77.40
30889;DHT22;51092;50.874;7.024;2024-02-26T01:02:29;8.00;78.00
30889;DHT22;51092;50.874;7.024;2024-02-26T01:03:31;8.10;77.80
30889;DHT22;51092;50.874;7.024;2024-02-26T01:04:33;8.30;77.20
30889;DHT22;51092;50.874;7.024;2024-02-26T01:05:35;8.20;77.80
30889;DHT22;51092;50.874;7.024;2024-02-26T01:06:39;8.10;78.30
30889;DHT22;51092;50.874;7.024;2024-02-26T01:07:40;8.10;78.20
30889;DHT22;51092;50.874;7.024;2024-02-26T01:08:43;8.20;77.70
30889;DHT22;51092;50.874;7.024;2024-02-26T01:09:44;8.10;77.70
30889;DHT22;51092;50.874;7.024;2024-02-26T01:10:47;8.10;78.00
30889;DHT22;51092;50.874;7.024;2024-02-26T01:11:48;8.10;78.10
30889;DHT22;51092;50.874;7.024;2024-02-26T01:12:53;8.20;77.60
30889;DHT22;51092;50.874;7.024;2024-02-26T01:13:55;8.30;77.10
30889;DHT22;51092;50.874;7.024;2024-02-26T01:14:57;8.20;77.30
30889;DHT22;51092;50.874;7.024;2024-02-26T01:16:00;8.20;78.00
30889;DHT22;51092;50.874;7.024;2024-02-26T01:17:03;8.20;77.90
30889;DHT22;51092;50.874;7.024;2024-02-26T01:18:05;8.30;77.70
30889;DHT22;51092;50.874;7.024;2024-02-26T01:19:07;8.40;77.10
30889;DHT22;51092;50.874;7.024;2024-02-26T01:20:09;8.30;77.70
30889;DHT22;51092;50.874;7.024;2024-02-26T01:21:11;8.20;77.70
30889;DHT22;51092;50.874;7.024;2024-02-26T01:22:13;8.30;78.00
30889;DHT22;51092;50.874;7.024;2024-02-26T01:23:15;8.30;77.90
30889;DHT22;51092;50.874;7.024;2024-02-26T01:24:17;8.20;78.00
30889;DHT22;51092;50.874;7.024;2024-02-26T01:25:19;8.20;78.20
30889;DHT22;51092;50.874;7.024;2024-02-26T01:26:22;8.20;78.00
30889;DHT22;51092;50.874;7.024;2024-02-26T01:27:23;8.20;78.10
30889;DHT22;51092;50.874;7.024;2024-02-26T01:28:28;8.10;79.10
30889;DHT22;51092;50.874;7.024;2024-02-26T01:29:31;8.10;79.30
30889;DHT22;51092;50.874;7.024;2024-02-26T01:30:32;8.10;79.50
30889;DHT22;51092;50.874;7.024;2024-02-26T01:31:36;8.10;79.80
30889;DHT22;51092;50.874;7.024;2024-02-26T01:32:37;7.90;80.10
30889;DHT22;51092;50.874;7.024;2024-02-26T01:33:43;8.00;80.50
30889;DHT22;51092;50.874;7.024;2024-02-26T01:34:44;8.10;80.20
30889;DHT22;51092;50.874;7.024;2024-02-26T01:35:46;8.00;80.30
30889;DHT22;51092;50.874;7.024;2024-02-26T01:36:48;8.00;80.10
30889;DHT22;51092;50.874;7.024;2024-02-26T01:37:51;7.80;80.70
30889;DHT22;51092;50.874;7.024;2024-02-26T01:38:52;7.90;81.00
30889;DHT22;51092;50.874;7.024;2024-02-26T01:39:54;7.90;81.10
30889;DHT22;51092;50.874;7.024;2024-02-26T01:40:56;8.00;80.60
30889;DHT22;51092;50.874;7.024;2024-02-26T01:41:58;7.90;80.90
30889;DHT22;51092;50.874;7.024;2024-02-26T01:43:00;8.00;80.60
30889;DHT22;51092;50.874;7.024;2024-02-26T01:44:01;7.90;81.10
30889;DHT22;51092;50.874;7.024;2024-02-26T01:45:05;7.90;81.30
30889;DHT22;51092;50.874;7.024;2024-02-26T01:46:10;8.00;81.20
30889;DHT22;51092;50.874;7.024;2024-02-26T01:47:16;8.00;81.10
30889;DHT22;51092;50.874;7.024;2024-02-26T01:48:17;8.00;81.40
30889;DHT22;51092;50.874;7.024;2024-02-26T01:49:20;8.00;81.20
30889;DHT22;51092;50.874;7.024;2024-02-26T01:50:22;7.90;81.80
30889;DHT22;51092;50.874;7.024;2024-02-26T01:51:25;7.90;81.80
30889;DHT22;51092;50.874;7.024;2024-02-26T01:52:27;7.80;82.40
30889;DHT22;51092;50.874;7.024;2024-02-26T01:53:29;7.90;82.40
30889;DHT22;51092;50.874;7.024;2024-02-26T01:54:31;7.90;82.20
30889;DHT22;51092;50.874;7.024;2024-02-26T01:55:36;7.90;82.30
30889;DHT22;51092;50.874;7.024;2024-02-26T01:56:39;7.80;82.80
30889;DHT22;51092;50.874;7.024;2024-02-26T01:57:44;7.90;82.90
30889;DHT22;51092;50.874;7.024;2024-02-26T01:58:46;7.90;82.90
30889;DHT22;51092;50.874;7.024;2024-02-26T01:59:49;7.90;83.10
30889;DHT22;51092;50.874;7.024;2024-02-26T02:00:51;8.00;82.50
30889;DHT22;51092;50.874;7.024;2024-02-26T02:01:55;8.00;82.50
30889;DHT22;51092;50.874;7.024;2024-02-26T02:03:00;8.00;82.70
30889;DHT22;51092;50.874;7.024;2024-02-26T02:04:04;8.00;82.60
30889;DHT22;51092;50.874;7.024;2024-02-26T02:05:06;7.90;83.00
30889;DHT22;51092;50.874;7.024;2024-02-26T02:06:12;7.80;84.00
30889;DHT22;51092;50.874;7.024;2024-02-26T02:07:14;7.80;84.10
30889;DHT22;51092;50.874;7.024;2024-02-26T02:08:16;7.80;84.40
30889;DHT22;51092;50.874;7.024;2024-02-26T02:09:19;7.90;84.40
30889;DHT22;51092;50.874;7.024;2024-02-26T02:10:21;7.90;83.90
30889;DHT22;51092;50.874;7.024;2024-02-26T02:11:24;7.90;84.40
30889;DHT22;51092;50.874;7.024;2024-02-26T02:12:27;7.80;84.20
30889;DHT22;51092;50.874;7.024;2024-02-26T02:13:28;7.80;84.40
30889;DHT22;51092;50.874;7.024;2024-02-26T02:14:31;7.80;84.90
30889;DHT22;51092;50.874;7.024;2024-02-26T02:15:33;7.70;84.90
30889;DHT22;51092;50.874;7.024;2024-02-26T02:16:37;7.80;84.90
30889;DHT22;51092;50.874;7.024;2024-02-26T02:17:40;7.80;84.60
30889;DHT22;51092;50.874;7.024;2024-02-26T02:18:43;7.80;84.60
30889;DHT22;51092;50.874;7.024;2024-02-26T02:19:44;7.80;84.60
30889;DHT22;51092;50.874;7.024;2024-02-26T02:20:47;7.80;85.00
30889;DHT22;51092;50.874;7.024;2024-02-26T02:21:48;7.80;85.40
30889;DHT22;51092;50.874;7.024;2024-02-26T02:22:50;7.80;85.40
30889;DHT22;51092;50.874;7.024;2024-02-26T02:23:52;7.80;85.30
30889;DHT22;51092;50.874;7.024;2024-02-26T02:24:54;7.90;84.60
30889;DHT22;51092;50.874;7.024;2024-02-26T02:25:56;7.90;84.70
30889;DHT22;51092;50.874;7.024;2024-02-26T02:26:59;7.80;85.10
30889;DHT22;51092;50.874;7.024;2024-02-26T02:28:01;7.60;85.90
30889;DHT22;51092;50.874;7.024;2024-02-26T02:29:06;7.70;86.70
30889;DHT22;51092;50.874;7.024;2024-02-26T02:30:09;7.80;85.80
30889;DHT22;51092;50.874;7.024;2024-02-26T02:31:13;7.70;85.50
30889;DHT22;51092;50.874;7.024;2024-02-26T02:32:14;7.70;85.60
30889;DHT22;51092;50.874;7.024;2024-02-26T02:33:18;7.80;85.30
30889;DHT22;51092;50.874;7.024;2024-02-26T02:34:20;7.70;85.80
30889;DHT22;51092;50.874;7.024;2024-02-26T02:35:22;7.80;85.60
30889;DHT22;51092;50.874;7.024;2024-02-26T02:36:25;7.80;85.60
30889;DHT22;51092;50.874;7.024;2024-02-26T02:37:27;7.80;85.80
30889;DHT22;51092;50.874;7.024;2024-02-26T02:38:28;7.90;85.70
30889;DHT22;51092;50.874;7.024;2024-02-26T02:39:31;7.90;85.30
30889;DHT22;51092;50.874;7.024;2024-02-26T02:40:33;8.00;84.60
30889;DHT22;51092;50.874;7.024;2024-02-26T02:41:35;7.90;85.20
30889;DHT22;51092;50.874;7.024;2024-02-26T02:42:37;7.80;85.60
30889;DHT22;51092;50.874;7.024;2024-02-26T02:43:38;7.80;85.90
30889;DHT22;51092;50.874;7.024;2024-02-26T02:44:40;7.70;86.20
30889;DHT22;51092;50.874;7.024;2024-02-26T02:45:42;7.80;86.20
30889;DHT22;51092;50.874;7.024;2024-02-26T02:46:44;7.70;86.50
30889;DHT22;51092;50.874;7.024;2024-02-26T02:47:46;7.80;86.30
30889;DHT22;51092;50.874;7.024;2024-02-26T02:48:48;7.70;86.20
30889;DHT22;51092;50.874;7.024;2024-02-26T02:49:50;7.80;86.00
30889;DHT22;51092;50.874;7.024;2024-02-26T02:50:52;7.80;86.00
30889;DHT22;51092;50.874;7.024;2024-02-26T02:51:55;7.80;86.20
30889;DHT22;51092;50.874;7.024;2024-02-26T02:52:58;7.70;86.60
30889;DHT22;51092;50.874;7.024;2024-02-26T02:54:00;7.70;87.30
30889;DHT22;51092;50.874;7.024;2024-02-26T02:55:03;7.80;87.00
30889;DHT22;51092;50.874;7.024;2024-02-26T02:56:05;7.80;86.70
30889;DHT22;51092;50.874;7.024;2024-02-26T02:57:08;7.90;85.90
30889;DHT22;51092;50.874;7.024;2024-02-26T02:58:09;7.90;85.80
30889;DHT22;51092;50.874;7.024;2024-02-26T02:59:12;7.80;86.40
30889;DHT22;51092;50.874;7.024;2024-02-26T03:00:14;7.70;86.70
30889;DHT22;51092;50.874;7.024;2024-02-26T03:01:17;7.70;87.20
30889;DHT22;51092;50.874;7.024;2024-02-26T03:02:18;7.80;87.20
30889;DHT22;51092;50.874;7.024;2024-02-26T03:03:21;7.80;86.10
30889;DHT22;51092;50.874;7.024;2024-02-26T03:04:24;7.70;87.00
30889;DHT22;51092;50.874;7.024;2024-02-26T03:05:26;7.70;87.00
30889;DHT22;51092;50.874;7.024;2024-02-26T03:06:27;7.80;86.80
30889;DHT22;51092;50.874;7.024;2024-02-26T03:07:30;7.80;86.40
30889;DHT22;51092;50.874;7.024;2024-02-26T03:08:32;7.90;86.30
30889;DHT22;51092;50.874;7.024;2024-02-26T03:09:34;7.90;86.00
30889;DHT22;51092;50.874;7.024;2024-02-26T03:10:36;7.80;86.70
30889;DHT22;51092;50.874;7.024;2024-02-26T03:11:38;7.70;86.90
30889;DHT22;51092;50.874;7.024;2024-02-26T03:12:41;7.70;87.50
30889;DHT22;51092;50.874;7.024;2024-02-26T03:13:43;7.70;87.10
30889;DHT22;51092;50.874;7.024;2024-02-26T03:14:45;7.70;87.10
30889;DHT22;51092;50.874;7.024;2024-02-26T03:15:47;7.70;87.80
30889;DHT22;51092;50.874;7.024;2024-02-26T03:16:49;7.70;87.90
30889;DHT22;51092;50.874;7.024;2024-02-26T03:17:51;7.60;87.90
30889;DHT22;51092;50.874;7.024;2024-02-26T03:18:53;7.50;88.10
30889;DHT22;51092;50.874;7.024;2024-02-26T03:19:56;7.70;87.80
30889;DHT22;51092;50.874;7.024;2024-02-26T03:20:58;7.70;88.10
30889;DHT22;51092;50.874;7.024;2024-02-26T03:22:00;7.60;88.30
30889;DHT22;51092;50.874;7.024;2024-02-26T03:23:03;7.70;88.50
30889;DHT22;51092;50.874;7.024;2024-02-26T03:24:06;7.70;89.10
30889;DHT22;51092;50.874;7.024;2024-02-26T03:25:10;7.70;89.20
30889;DHT22;51092;50.874;7.024;2024-02-26T03:26:12;7.90;88.80
30889;DHT22;51092;50.874;7.024;2024-02-26T03:27:15;7.70;88.10
30889;DHT22;51092;50.874;7.024;2024-02-26T03:28:18;7.70;88.80
30889;DHT22;51092;50.874;7.024;2024-02-26T03:29:19;7.70;89.10
30889;DHT22;51092;50.874;7.024;2024-02-26T03:30:22;7.70;89.00
30889;DHT22;51092;50.874;7.024;2024-02-26T03:31:23;7.70;89.50
30889;DHT22;51092;50.874;7.024;2024-02-26T03:32:26;7.70;89.50
30889;DHT22;51092;50.874;7.024;2024-02-26T03:33:27;7.80;89.50
30889;DHT22;51092;50.874;7.024;2024-02-26T03:34:29;7.80;89.50
30889;DHT22;51092;50.874;7.024;2024-02-26T03:35:31;7.70;89.80
30889;DHT22;51092;50.874;7.024;2024-02-26T03:36:33;7.80;89.60
30889;DHT22;51092;50.874;7.024;2024-02-26T03:37:34;7.90;89.50
30889;DHT22;51092;50.874;7.024;2024-02-26T03:38:38;7.80;89.70
30889;DHT22;51092;50.874;7.024;2024-02-26T03:39:40;7.80;89.60
30889;DHT22;51092;50.874;7.024;2024-02-26T03:40:42;7.80;90.00
30889;DHT22;51092;50.874;7.024;2024-02-26T03:41:44;7.90;89.50
30889;DHT22;51092;50.874;7.024;2024-02-26T03:42:46;7.70;90.00
30889;DHT22;51092;50.874;7.024;2024-02-26T03:43:48;7.70;90.00
30889;DHT22;51092;50.874;7.024;2024-02-26T03:44:50;7.60;90.10
30889;DHT22;51092;50.874;7.024;2024-02-26T03:45:52;7.70;90.30
30889;DHT22;51092;50.874;7.024;2024-02-26T03:46:54;7.70;90.30
30889;DHT22;51092;50.874;7.024;2024-02-26T03:47:56;7.60;90.40
30889;DHT22;51092;50.874;7.024;2024-02-26T03:48:59;7.60;90.60
30889;DHT22;51092;50.874;7.024;2024-02-26T03:50:00;7.60;90.60
30889;DHT22;51092;50.874;7.024;2024-02-26T03:51:02;7.60;90.40
30889;DHT22;51092;50.874;7.024;2024-02-26T03:52:05;7.70;90.50
30889;DHT22;51092;50.874;7.024;2024-02-26T03:53:06;7.70;90.70
30889;DHT22;51092;50.874;7.024;2024-02-26T03:54:11;7.60;90.70
30889;DHT22;51092;50.874;7.024;2024-02-26T03:55:13;7.60;91.10
30889;DHT22;51092;50.874;7.024;2024-02-26T03:56:15;7.60;91.00
30889;DHT22;51092;50.874;7.024;2024-02-26T03:57:17;7.60;91.20
30889;DHT22;51092;50.874;7.024;2024-02-26T03:58:19;7.60;91.30
30889;DHT22;51092;50.874;7.024;2024-02-26T03:59:21;7.70;91.30
30889;DHT22;51092;50.874;7.024;2024-02-26T04:00:25;7.80;91.10
30889;DHT22;51092;50.874;7.024;2024-02-26T04:01:27;7.70;90.90
30889;DHT22;51092;50.874;7.024;2024-02-26T04:02:29;7.70;91.20
30889;DHT22;51092;50.874;7.024;2024-02-26T04:03:31;7.70;91.10
30889;DHT22;51092;50.874;7.024;2024-02-26T04:04:34;7.80;91.20
30889;DHT22;51092;50.874;7.024;2024-02-26T04:05:36;7.70;90.90
30889;DHT22;51092;50.874;7.024;2024-02-26T04:06:38;7.90;91.20
30889;DHT22;51092;50.874;7.024;2024-02-26T04:07:40;7.90;90.90
30889;DHT22;51092;50.874;7.024;2024-02-26T04:08:41;7.90;90.80
30889;DHT22;51092;50.874;7.024;2024-02-26T04:09:45;7.80;90.80
30889;DHT22;51092;50.874;7.024;2024-02-26T04:10:47;7.80;90.90
30889;DHT22;51092;50.874;7.024;2024-02-26T04:11:49;7.70;91.10
30889;DHT22;51092;50.874;7.024;2024-02-26T04:12:51;7.60;91.30
30889;DHT22;51092;50.874;7.024;2024-02-26T04:13:55;7.60;91.50
30889;DHT22;51092;50.874;7.024;2024-02-26T04:14:58;7.60;91.80
30889;DHT22;51092;50.874;7.024;2024-02-26T04:15:59;7.50;91.70
30889;DHT22;51092;50.874;7.024;2024-02-26T04:17:02;7.50;91.70
30889;DHT22;51092;50.874;7.024;2024-02-26T04:18:04;7.60;92.20
30889;DHT22;51092;50.874;7.024;2024-02-26T04:19:07;7.70;92.20
30889;DHT22;51092;50.874;7.024;2024-02-26T04:20:14;7.70;92.20
30889;DHT22;51092;50.874;7.024;2024-02-26T04:21:15;7.60;92.30
30889;DHT22;51092;50.874;7.024;2024-02-26T04:22:18;7.50;92.30
30889;DHT22;51092;50.874;7.024;2024-02-26T04:23:19;7.50;92.40
30889;DHT22;51092;50.874;7.024;2024-02-26T04:24:22;7.50;92.60
30889;DHT22;51092;50.874;7.024;2024-02-26T04:25:25;7.60;93.00
30889;DHT22;51092;50.874;7.024;2024-02-26T04:26:28;7.60;93.20
30889;DHT22;51092;50.874;7.024;2024-02-26T04:27:31;7.50;93.20
30889;DHT22;51092;50.874;7.024;2024-02-26T04:28:34;7.50;93.40
30889;DHT22;51092;50.874;7.024;2024-02-26T04:29:35;7.60;93.20
30889;DHT22;51092;50.874;7.024;2024-02-26T04:30:38;7.50;93.30
30889;DHT22;51092;50.874;7.024;2024-02-26T04:31:39;7.50;93.60
30889;DHT22;51092;50.874;7.024;2024-02-26T04:32:43;7.60;93.70
30889;DHT22;51092;50.874;7.024;2024-02-26T04:33:45;7.50;93.80
30889;DHT22;51092;50.874;7.024;2024-02-26T04:34:47;7.50;93.50
30889;DHT22;51092;50.874;7.024;2024-02-26T04:35:49;7.50;94.00
30889;DHT22;51092;50.874;7.024;2024-02-26T04:36:51;7.60;94.20
30889;DHT22;51092;50.874;7.024;2024-02-26T04:37:56;7.70;94.00
30889;DHT22;51092;50.874;7.024;2024-02-26T04:38:59;7.60;94.10
30889;DHT22;51092;50.874;7.024;2024-02-26T04:40:01;7.50;93.90
30889;DHT22;51092;50.874;7.024;2024-02-26T04:41:05;7.50;94.00
30889;DHT22;51092;50.874;7.024;2024-02-26T04:42:07;7.60;93.90
30889;DHT22;51092;50.874;7.024;2024-02-26T04:43:09;7.40;93.70
30889;DHT22;51092;50.874;7.024;2024-02-26T04:44:11;7.50;94.30
30889;DHT22;51092;50.874;7.024;2024-02-26T04:45:13;7.50;94.40
30889;DHT22;51092;50.874;7.024;2024-02-26T04:46:15;7.50;94.80
30889;DHT22;51092;50.874;7.024;2024-02-26T04:47:17;7.50;94.80
30889;DHT22;51092;50.874;7.024;2024-02-26T04:48:18;7.50;94.70
30889;DHT22;51092;50.874;7.024;2024-02-26T04:49:21;7.30;94.80
30889;DHT22;51092;50.874;7.024;2024-02-26T04:50:22;7.30;95.40
30889;DHT22;51092;50.874;7.024;2024-02-26T04:51:25;7.40;95.80
30889;DHT22;51092;50.874;7.024;2024-02-26T04:52:26;7.40;95.90
30889;DHT22;51092;50.874;7.024;2024-02-26T04:53:28;7.40;95.80
30889;DHT22;51092;50.874;7.024;2024-02-26T04:54:30;7.40;95.90
30889;DHT22;51092;50.874;7.024;2024-02-26T04:55:32;7.30;95.90
30889;DHT22;51092;50.874;7.024;2024-02-26T04:56:36;7.30;96.60
30889;DHT22;51092;50.874;7.024;2024-02-26T04:57:37;7.40;96.70
30889;DHT22;51092;50.874;7.024;2024-02-26T04:58:40;7.20;96.50
30889;DHT22;51092;50.874;7.024;2024-02-26T04:59:41;7.20;96.90
30889;DHT22;51092;50.874;7.024;2024-02-26T05:00:44;7.40;97.60
30889;DHT22;51092;50.874;7.024;2024-02-26T05:01:45;7.20;97.50
30889;DHT22;51092;50.874;7.024;2024-02-26T05:02:47;7.30;98.10
30889;DHT22;51092;50.874;7.024;2024-02-26T05:03:49;7.30;98.30
30889;DHT22;51092;50.874;7.024;2024-02-26T05:04:51;7.40;98.20
30889;DHT22;51092;50.874;7.024;2024-02-26T05:05:52;7.40;98.50
30889;DHT22;51092;50.874;7.024;2024-02-26T05:06:57;7.50;98.00
30889;DHT22;51092;50.874;7.024;2024-02-26T05:07:58;7.40;98.00
30889;DHT22;51092;50.874;7.024;2024-02-26T05:09:00;7.50;97.90
30889;DHT22;51092;50.874;7.024;2024-02-26T05:10:02;7.40;97.80
30889;DHT22;51092;50.874;7.024;2024-02-26T05:11:05;7.40;97.40
30889;DHT22;51092;50.874;7.024;2024-02-26T05:12:08;7.40;97.10
30889;DHT22;51092;50.874;7.024;2024-02-26T05:13:10;7.40;97.80
30889;DHT22;51092;50.874;7.024;2024-02-26T05:14:12;7.30;97.50
30889;DHT22;51092;50.874;7.024;2024-02-26T05:15:15;7.40;98.20
30889;DHT22;51092;50.874;7.024;2024-02-26T05:16:19;7.40;97.70
30889;DHT22;51092;50.874;7.024;2024-02-26T05:17:26;7.30;97.40
30889;DHT22;51092;50.874;7.024;2024-02-26T05:18:27;7.30;97.70
30889;DHT22;51092;50.874;7.024;2024-02-26T05:19:33;7.30;97.90
30889;DHT22;51092;50.874;7.024;2024-02-26T05:20:34;7.30;97.70
30889;DHT22;51092;50.874;7.024;2024-02-26T05:21:39;7.40;98.80
30889;DHT22;51092;50.874;7.024;2024-02-26T05:22:41;7.30;99.00
30889;DHT22;51092;50.874;7.024;2024-02-26T05:23:43;7.40;98.70
30889;DHT22;51092;50.874;7.024;2024-02-26T05:24:45;7.30;98.20
30889;DHT22;51092;50.874;7.024;2024-02-26T05:25:48;7.20;98.00
30889;DHT22;51092;50.874;7.024;2024-02-26T05:26:53;7.20;98.60
30889;DHT22;51092;50.874;7.024;2024-02-26T05:27:57;7.20;99.60
30889;DHT22;51092;50.874;7.024;2024-02-26T05:28:58;7.20;99.90
30889;DHT22;51092;50.874;7.024;2024-02-26T05:30:04;7.20;99.90
30889;DHT22;51092;50.874;7.024;2024-02-26T05:31:16;7.20;99.90
30889;DHT22;51092;50.874;7.024;2024-02-26T05:32:18;7.10;99.90
30889;DHT22;51092;50.874;7.024;2024-02-26T05:33:20;7.20;99.90
30889;DHT22;51092;50.874;7.024;2024-02-26T05:34:21;7.10;99.90
30889;DHT22;51092;50.874;7.024;2024-02-26T05:35:23;7.20;99.90
30889;DHT22;51092;50.874;7.024;2024-02-26T05:36:24;7.10;99.90
30889;DHT22;51092;50.874;7.024;2024-02-26T05:37:26;7.20;99.90
30889;DHT22;51092;50.874;7.024;2024-02-26T05:38:28;7.10;99.90
30889;DHT22;51092;50.874;7.024;2024-02-26T05:39:29;7.00;99.90
30889;DHT22;51092;50.874;7.024;2024-02-26T05:40:31;6.90;99.90
30889;DHT22;51092;50.874;7.024;2024-02-26T05:41:32;6.90;99.90
30889;DHT22;51092;50.874;7.024;2024-02-26T05:42:34;6.90;99.90
30889;DHT22;51092;50.874;7.024;2024-02-26T05:43:37;6.80;99.90
30889;DHT22;51092;50.874;7.024;2024-02-26T05:44:39;6.90;99.90
30889;DHT22;51092;50.874;7.024;2024-02-26T05:45:41;6.90;99.90
30889;DHT22;51092;50.874;7.024;2024-02-26T05:46:43;6.90;99.90
30889;DHT22;51092;50.874;7.024;2024-02-26T05:47:45;6.80;99.90
30889;DHT22;51092;50.874;7.024;2024-02-26T05:48:50;6.80;99.90
30889;DHT22;51092;50.874;7.024;2024-02-26T05:49:52;6.80;99.90
30889;DHT22;51092;50.874;7.024;2024-02-26T05:50:54;6.90;99.90
30889;DHT22;51092;50.874;7.024;2024-02-26T05:51:56;6.90;99.90
30889;DHT22;51092;50.874;7.024;2024-02-26T05:52:58;6.90;99.90
30889;DHT22;51092;50.874;7.024;2024-02-26T05:54:00;6.90;99.90
30889;DHT22;51092;50.874;7.024;2024-02-26T05:55:02;7.00;99.90
30889;DHT22;51092;50.874;7.024;2024-02-26T05:56:05;6.90;99.90
30889;DHT22;51092;50.874;7.024;2024-02-26T05:57:08;6.80;99.90
30889;DHT22;51092;50.874;7.024;2024-02-26T05:58:09;6.90;99.90
30889;DHT22;51092;50.874;7.024;2024-02-26T05:59:13;6.90;99.90
30889;DHT22;51092;50.874;7.024;2024-02-26T06:00:17;6.90;99.90
30889;DHT22;51092;50.874;7.024;2024-02-26T06:01:20;6.90;99.90
30889;DHT22;51092;50.874;7.024;2024-02-26T06:02:21;6.80;99.90
30889;DHT22;51092;50.874;7.024;2024-02-26T06:03:24;6.80;99.90
30889;DHT22;51092;50.874;7.024;2024-02-26T06:04:25;6.70;99.90
30889;DHT22;51092;50.874;7.024;2024-02-26T06:05:28;6.80;99.90
30889;DHT22;51092;50.874;7.024;2024-02-26T06:06:30;6.90;99.90
30889;DHT22;51092;50.874;7.024;2024-02-26T06:07:33;7.00;99.90
30889;DHT22;51092;50.874;7.024;2024-02-26T06:08:34;6.90;99.90
30889;DHT22;51092;50.874;7.024;2024-02-26T06:09:36;6.90;99.90
30889;DHT22;51092;50.874;7.024;2024-02-26T06:10:38;6.90;99.90
30889;DHT22;51092;50.874;7.024;2024-02-26T06:11:41;6.80;99.90
30889;DHT22;51092;50.874;7.024;2024-02-26T06:12:42;6.80;99.90
30889;DHT22;51092;50.874;7.024;2024-02-26T06:13:45;6.90;99.90
30889;DHT22;51092;50.874;7.024;2024-02-26T06:14:48;6.90;99.90
30889;DHT22;51092;50.874;7.024;2024-02-26T06:15:50;6.90;99.90
30889;DHT22;51092;50.874;7.024;2024-02-26T06:16:52;6.80;99.90
30889;DHT22;51092;50.874;7.024;2024-02-26T06:17:54;6.90;99.90
30889;DHT22;51092;50.874;7.024;2024-02-26T06:18:56;7.00;99.90
30889;DHT22;51092;50.874;7.024;2024-02-26T06:19:59;6.90;99.90
30889;DHT22;51092;50.874;7.024;2024-02-26T06:21:01;6.80;99.90
30889;DHT22;51092;50.874;7.024;2024-02-26T06:22:04;6.90;99.90
30889;DHT22;51092;50.874;7.024;2024-02-26T06:23:05;6.90;99.90
30889;DHT22;51092;50.874;7.024;2024-02-26T06:24:08;7.00;99.90
30889;DHT22;51092;50.874;7.024;2024-02-26T06:25:10;7.00;99.90
30889;DHT22;51092;50.874;7.024;2024-02-26T06:26:12;7.00;99.90
30889;DHT22;51092;50.874;7.024;2024-02-26T06:27:13;7.10;99.90
30889;DHT22;51092;50.874;7.024;2024-02-26T06:28:15;7.00;99.90
30889;DHT22;51092;50.874;7.024;2024-02-26T06:29:17;7.00;99.90
30889;DHT22;51092;50.874;7.024;2024-02-26T06:30:21;7.00;99.90
30889;DHT22;51092;50.874;7.024;2024-02-26T06:31:23;7.10;99.90
30889;DHT22;51092;50.874;7.024;2024-02-26T06:32:25;7.00;99.90
30889;DHT22;51092;50.874;7.024;2024-02-26T06:33:28;6.90;99.90
30889;DHT22;51092;50.874;7.024;2024-02-26T06:34:30;6.80;99.90
30889;DHT22;51092;50.874;7.024;2024-02-26T06:35:31;7.00;99.90
30889;DHT22;51092;50.874;7.024;2024-02-26T06:36:33;6.80;99.90
30889;DHT22;51092;50.874;7.024;2024-02-26T06:37:36;6.90;99.90
30889;DHT22;51092;50.874;7.024;2024-02-26T06:38:38;6.80;99.90
30889;DHT22;51092;50.874;7.024;2024-02-26T06:39:40;6.80;99.90
30889;DHT22;51092;50.874;7.024;2024-02-26T06:40:44;6.90;99.90